Latest Weather Observations for Pallamana

IDS60801

Issued at 11:01 pm CST Thursday 2 July 2020 (issued every 10 minutes, with the page automatically refreshed every 10 minutes)

About weather observations | Map of weather stations | Latest weather observations for SA | Other Formats
Station Details ID: 024584 Name: PALLAMANA AERODROME Lat: -35.06 Lon: 139.23 Height: 45.0 m
Data from the previous 72 hours. | See also: Recent months at Pallamana
Date/Time
CST
Temp
°C
App
Temp
°C
Dew
Point
°C
Rel
Hum
%
Delta-T
°C
Wind Press
QNH
hPa
Press
MSL
hPa
Rain since
9am
mm
Dir  Spd
km/h
Gust
km/h
Spd
kts
Gust
kts
02/11:00pm 6.6 3.1 5.5 93 0.5 N 13 15 7 8 1021.8 1021.9 0.6
02/10:30pm 6.0 2.3 4.6 91 0.6 NNE 13 15 7 8 1021.8 1021.9 0.6
02/10:00pm 8.6 5.6 6.0 84 1.2 NW 11 15 6 8 1021.6 1021.7 0.6
02/09:30pm 8.3 4.8 5.6 83 1.2 WNW 13 15 7 8 1021.6 1021.7 0.6
02/09:00pm 8.3 5.2 5.6 83 1.2 WNW 11 13 6 7 1021.5 1021.6 0.6
02/08:30pm 7.0 3.6 4.2 82 1.2 NW 11 13 6 7 1021.3 1021.4 0.6
02/08:00pm 5.9 2.6 4.3 89 0.7 NW 11 11 6 6 1020.8 1020.9 0.6
02/07:30pm 6.7 4.2 4.6 86 0.9 N 7 9 4 5 1020.6 1020.7 0.6
02/07:00pm 5.6 4.2 3.4 86 0.9 CALM 0 7 0 4 1020.5 1020.6 0.6
02/06:30pm 8.7 6.3 5.1 78 1.6 WNW 7 9 4 5 1019.9 1020.0 0.6
02/06:00pm 9.4 6.3 5.4 76 1.8 WNW 11 13 6 7 1019.7 1019.8 0.6
02/05:30pm 10.1 6.5 5.0 70 2.3 W 13 17 7 9 1019.3 1019.3 0.6
02/05:00pm 10.5 6.6 5.2 70 2.4 W 15 20 8 11 1019.1 1019.1 0.6
02/04:30pm 12.1 7.2 4.9 61 3.3 W 20 30 11 16 1018.8 1018.8 0.6
02/04:00pm 12.2 6.0 4.5 59 3.5 W 26 35 14 19 1018.5 1018.5 0.6
02/03:30pm 12.2 6.5 4.8 60 3.4 W 24 37 13 20 1018.2 1018.2 0.6
02/03:00pm 11.6 5.5 6.5 71 2.4 WSW 28 41 15 22 1018.1 1018.1 0.6
02/02:30pm 12.7 7.4 4.9 59 3.6 W 22 32 12 17 1017.8 1017.8 0.6
02/02:00pm 12.8 7.9 5.3 60 3.5 WNW 20 32 11 17 1017.9 1017.9 0.6
02/01:30pm 12.4 8.3 6.3 66 2.9 W 17 28 9 15 1017.7 1017.7 0.6
02/01:00pm 12.0 6.7 7.0 71 2.4 W 24 35 13 19 1017.7 1017.7 0.6
02/12:46pm 11.3 3.4 6.2 71 2.4 WSW 37 56 20 30 1017.7 1017.7 0.6
02/12:37pm 12.4 5.3 6.5 67 2.8 W 33 56 18 30 1017.5 1017.5 0.6
02/12:35pm 13.3 6.8 6.6 64 3.2 W 30 48 16 26 1017.6 1017.6 0.6
02/12:30pm 13.4 7.4 5.3 58 3.8 W 26 33 14 18 1017.5 1017.5 0.6
02/12:00pm 13.0 8.2 5.8 61 3.4 WNW 20 33 11 18 1017.4 1017.4 0.6
02/11:30am 10.5 4.8 4.7 67 2.6 W 24 32 13 17 1018.0 1018.0 0.6
02/11:24am 10.1 3.8 5.7 74 2.0 W 28 46 15 25 1018.1 1018.1 0.6
02/11:17am 11.4 6.0 6.5 72 2.3 WNW 24 46 13 25 1018.1 1018.1 0.2
02/11:00am 13.1 8.7 6.6 64 3.1 NW 19 26 10 14 1017.8 1017.8 0.0
02/10:30am 12.3 9.2 7.1 70 2.5 WNW 13 19 7 10 1017.8 1017.8 0.0
02/10:00am 11.4 8.1 6.5 72 2.3 WNW 13 20 7 11 1017.7 1017.7 0.0
02/09:30am 10.9 7.3 6.7 75 2.0 NW 15 22 8 12 1017.4 1017.4 0.0
02/09:00am 9.4 7.2 6.4 81 1.4 NW 7 11 4 6 1016.9 1016.9 -
02/08:30am 9.7 5.3 5.0 72 2.1 WNW 17 22 9 12 1016.5 1016.5 -
02/08:00am 8.5 5.6 6.3 86 1.0 NW 11 17 6 9 1016.4 1016.4 -
02/07:30am 8.2 4.8 6.0 86 1.0 WNW 13 17 7 9 1015.8 1015.8 -
02/07:00am 8.6 5.7 6.7 88 0.9 WNW 11 17 6 9 1015.7 1015.7 -
02/06:30am 8.6 4.4 5.7 82 1.3 W 17 26 9 14 1015.2 1015.2 -
02/06:00am 8.0 4.4 4.8 80 1.4 WNW 13 15 7 8 1015.0 1015.0 -
02/05:30am 7.4 5.9 4.9 84 1.1 NNW 2 7 1 4 1014.5 1014.5 -
02/05:00am 6.1 4.8 4.0 86 0.9 CALM 0 0 0 0 1014.1 1014.1 -
02/04:30am 6.6 5.0 4.3 85 1.0 WNW 2 7 1 4 1013.9 1013.9 -
02/04:00am 7.9 5.0 4.7 80 1.4 SW 9 11 5 6 1013.7 1013.7 -
02/03:30am 10.0 5.3 6.1 77 1.8 WNW 20 35 11 19 1013.9 1013.9 -
02/03:00am 7.7 5.0 5.5 86 1.0 N 9 13 5 7 1013.2 1013.2 -
02/02:30am 8.6 6.3 5.5 81 1.4 WSW 7 11 4 6 1013.0 1013.0 -
02/02:00am 10.1 5.8 5.3 72 2.2 W 17 24 9 13 1012.8 1012.8 -
02/01:30am 10.5 6.3 5.5 71 2.3 W 17 28 9 15 1012.0 1012.0 -
02/01:00am 10.6 5.9 5.9 73 2.2 W 20 30 11 16 1011.7 1011.7 8.2
02/12:30am 10.7 4.4 5.5 70 2.4 WNW 28 41 15 22 1010.7 1010.8 8.2
02/12:00am 10.8 4.2 5.9 72 2.3 W 30 41 16 22 1010.7 1010.8 8.2
 
Date/Time
CST
Temp
°C
App
Temp
°C
Dew
Point
°C
Rel
Hum
%
Delta-T
°C
Wind Press
QNH
hPa
Press
MSL
hPa
Rain since
9am
mm
Dir  Spd
km/h
Gust
km/h
Spd
kts
Gust
kts
01/11:30pm 10.8 6.2 6.6 75 2.0 WNW 20 30 11 16 1010.8 1010.9 8.2
01/11:00pm 10.9 5.5 6.4 74 2.1 W 24 39 13 21 1010.7 1010.8 8.2
01/10:30pm 10.3 5.7 6.5 77 1.8 WNW 20 32 11 17 1010.5 1010.6 8.2
01/10:00pm 9.8 5.6 5.9 77 1.8 NW 17 24 9 13 1010.3 1010.4 8.2
01/09:30pm 9.9 5.4 6.2 78 1.7 NW 19 26 10 14 1009.9 1010.0 8.2
01/09:17pm 10.1 4.7 6.5 78 1.7 WNW 24 35 13 19 1010.1 1010.2 8.0
01/09:00pm 10.7 6.6 8.5 86 1.1 NW 20 37 11 20 1010.9 1011.0 7.0
01/08:49pm 10.7 6.3 7.6 81 1.5 NW 20 28 11 15 1010.5 1010.6 5.8
01/08:30pm 10.7 5.0 6.9 77 1.8 NNW 26 39 14 21 1009.3 1009.4 4.8
01/08:00pm 10.7 6.5 7.4 80 1.6 NW 19 28 10 15 1010.1 1010.2 4.4
01/07:34pm 10.5 5.4 7.8 83 1.3 W 24 39 13 21 1010.1 1010.2 4.0
01/07:30pm 10.4 5.4 7.9 84 1.2 W 24 39 13 21 1010.2 1010.3 3.8
01/07:08pm 10.7 4.3 8.5 86 1.1 W 32 48 17 26 1009.7 1009.8 2.0
01/07:07pm 10.8 4.8 8.6 86 1.1 W 30 48 16 26 1009.7 1009.8 1.8
01/07:00pm 11.0 4.6 8.6 85 1.2 W 32 41 17 22 1009.5 1009.6 1.6
01/06:43pm 12.0 5.5 9.0 82 1.5 W 33 52 18 28 1009.0 1009.1 1.2
01/06:40pm 11.9 5.4 9.1 83 1.4 W 33 52 18 28 1008.9 1009.0 1.2
01/06:30pm 12.8 7.7 10.5 86 1.2 WNW 28 41 15 22 1008.7 1008.8 1.0
01/06:29pm 13.0 7.5 10.7 86 1.2 WNW 30 48 16 26 1008.7 1008.8 1.0
01/06:24pm 13.4 7.5 10.3 81 1.6 WNW 32 48 17 26 1008.4 1008.5 0.6
01/06:00pm 14.9 8.2 8.2 64 3.4 WNW 33 46 18 25 1007.0 1007.1 0.0
01/05:49pm 15.0 8.9 8.3 64 3.4 W 30 48 16 26 1006.8 1006.9 0.0
01/05:30pm 16.1 8.4 7.3 56 4.4 W 37 56 20 30 1006.5 1006.6 0.0
01/05:12pm 18.6 10.9 2.3 33 7.5 NW 32 50 17 27 1005.5 1005.6 0.0
01/05:00pm 18.0 11.9 2.9 36 7.0 NW 24 35 13 19 1005.3 1005.4 0.0
01/04:30pm 18.3 12.3 3.4 37 7.0 NW 24 33 13 18 1005.1 1005.2 0.0
01/04:00pm 19.6 13.3 3.9 35 7.5 NW 26 37 14 20 1005.1 1005.2 0.0
01/03:30pm 20.1 12.6 3.2 32 8.0 NNW 32 41 17 22 1005.5 1005.6 0.0
01/03:00pm 20.6 13.9 3.4 32 8.2 NNW 28 35 15 19 1006.0 1006.1 0.0
01/02:35pm 21.2 14.5 3.8 32 8.4 NNW 28 50 15 27 1006.1 1006.2 0.0
01/02:30pm 21.2 15.0 4.1 32 8.3 NNW 26 35 14 19 1006.1 1006.2 0.0
01/02:08pm 20.3 12.5 2.9 31 8.2 NNW 33 52 18 28 1006.4 1006.5 0.0
01/02:00pm 20.3 12.1 2.9 31 8.2 N 35 46 19 25 1006.3 1006.4 0.0
01/01:30pm 21.0 13.1 4.4 33 8.1 N 35 48 19 26 1006.3 1006.4 0.0
01/01:00pm 21.0 12.5 3.2 31 8.5 N 37 46 20 25 1006.8 1006.9 0.0
01/12:30pm 20.7 14.4 3.9 33 8.1 N 26 39 14 21 1007.6 1007.7 0.0
01/12:00pm 18.5 12.3 2.1 33 7.5 NNE 24 33 13 18 1008.6 1008.7 0.0
01/11:30am 17.3 11.1 2.0 35 6.9 NNE 24 30 13 16 1009.5 1009.6 0.0
01/11:00am 15.0 9.1 1.5 40 5.9 N 22 28 12 15 1010.6 1010.7 0.0
01/10:30am 14.1 8.2 2.0 44 5.3 NNE 22 28 12 15 1011.0 1011.1 0.0
01/10:00am 13.2 8.8 2.5 48 4.7 NNE 15 19 8 10 1011.4 1011.4 0.0
01/09:30am 11.1 7.0 2.2 54 3.8 N 13 20 7 11 1011.8 1011.8 0.0
01/09:00am 9.5 5.4 2.4 61 3.0 N 13 17 7 9 1012.1 1012.1 0.0
01/08:30am 7.7 3.5 1.9 67 2.4 NNW 13 17 7 9 1012.3 1012.3 0.0
01/08:00am 6.1 1.0 0.8 69 2.1 N 17 19 9 10 1012.3 1012.3 0.0
01/07:30am 5.2 -0.3 0.6 72 1.8 N 19 22 10 12 1012.6 1012.6 0.0
01/07:00am 4.8 0.7 0.1 71 1.8 N 11 17 6 9 1012.6 1012.6 0.0
01/06:30am 4.6 1.5 0.1 72 1.7 NNW 6 9 3 5 1012.8 1012.8 0.0
01/06:00am 4.2 0.2 0.3 76 1.5 N 11 15 6 8 1013.0 1013.0 0.0
01/05:30am 3.7 0.1 0.3 78 1.3 NNW 9 13 5 7 1013.2 1013.2 0.0
01/05:00am 3.5 -0.6 0.0 78 1.3 NNW 11 13 6 7 1013.3 1013.3 0.0
01/04:30am 4.1 0.1 0.7 78 1.3 NNW 11 13 6 7 1013.7 1013.7 0.0
01/04:00am 4.5 0.6 0.9 77 1.4 NW 11 13 6 7 1013.7 1013.7 0.0
01/03:30am 3.8 0.2 0.9 81 1.1 NNW 9 11 5 6 1014.0 1014.0 0.0
01/03:00am 2.3 -1.4 0.1 85 0.8 NNW 9 13 5 7 1014.2 1014.2 0.0
01/02:30am 4.5 0.9 0.9 77 1.4 NNW 9 11 5 6 1014.4 1014.4 0.0
01/02:00am 5.5 2.0 1.2 74 1.7 N 9 11 5 6 1014.6 1014.6 0.0
01/01:30am 5.3 1.8 1.0 74 1.7 NNW 9 11 5 6 1014.7 1014.7 0.0
01/01:00am 6.2 3.3 1.7 73 1.8 NNW 6 9 3 5 1014.9 1014.9 0.0
01/12:30am 4.6 2.3 0.4 74 1.6 NW 2 9 1 5 1015.3 1015.3 0.0
01/12:00am 7.7 3.5 1.6 65 2.5 NNW 13 17 7 9 1015.5 1015.5 0.0
 
Date/Time
CST
Temp
°C
App
Temp
°C
Dew
Point
°C
Rel
Hum
%
Delta-T
°C
Wind Press
QNH
hPa
Press
MSL
hPa
Rain since
9am
mm
Dir  Spd
km/h
Gust
km/h
Spd
kts
Gust
kts
30/11:30pm 7.9 4.1 1.8 65 2.5 NNW 11 13 6 7 1015.8 1015.8 0.0
30/11:00pm 8.1 3.5 1.8 64 2.6 NNW 15 17 8 9 1015.9 1015.9 0.0
30/10:30pm 8.0 3.1 2.2 67 2.4 NNW 17 20 9 11 1016.2 1016.2 0.0
30/10:00pm 7.5 4.2 2.4 70 2.1 NNW 9 11 5 6 1016.3 1016.3 0.0
30/09:30pm 6.6 2.9 2.5 75 1.7 N 11 13 6 7 1016.5 1016.5 0.0
30/09:00pm 10.0 6.0 2.8 61 3.1 WNW 13 17 7 9 1016.5 1016.5 0.0
30/08:30pm 9.8 5.8 2.8 61 3.0 NW 13 15 7 8 1016.8 1016.8 0.0
30/08:00pm 7.1 3.9 3.1 76 1.7 NW 9 13 5 7 1016.8 1016.8 0.0
30/07:30pm 6.1 4.1 2.2 76 1.6 NW 2 6 1 3 1016.7 1016.7 0.0
30/07:00pm 9.6 6.1 3.4 65 2.7 NW 11 13 6 7 1016.3 1016.3 0.0
30/06:30pm 9.7 6.5 3.2 64 2.8 NW 9 11 5 6 1016.1 1016.1 0.0
30/06:00pm 10.2 7.6 3.3 62 3.0 N 6 7 3 4 1015.7 1015.7 0.0
30/05:30pm 11.3 8.8 3.9 60 3.3 NNW 6 9 3 5 1015.4 1015.4 0.0
30/05:00pm 13.5 9.5 2.9 48 4.7 NNW 13 15 7 8 1015.0 1015.0 0.0
30/04:30pm 15.5 11.4 2.3 41 5.9 NNW 13 19 7 10 1014.5 1014.5 0.0
30/04:00pm 16.4 11.5 2.1 38 6.4 NW 17 22 9 12 1014.2 1014.2 0.0
30/03:30pm 16.6 10.3 1.8 37 6.6 NW 24 33 13 18 1013.7 1013.7 0.0
30/03:00pm 17.1 11.9 2.3 37 6.7 NW 19 26 10 14 1013.7 1013.7 0.0
30/02:30pm 16.8 10.5 1.5 35 6.8 NW 24 33 13 18 1013.7 1013.7 0.0
30/02:00pm 15.7 9.3 1.0 37 6.4 NW 24 35 13 19 1013.7 1013.7 0.0
30/01:30pm 16.0 9.3 1.2 36 6.5 NW 26 35 14 19 1013.6 1013.6 0.0
30/01:00pm 15.6 9.9 0.5 36 6.5 NW 20 30 11 16 1013.9 1013.9 0.0
30/12:30pm 15.4 8.1 -0.2 34 6.6 NW 28 37 15 20 1014.4 1014.4 0.0
30/12:00pm 15.8 10.7 0.5 35 6.6 NW 17 30 9 16 1014.4 1014.4 0.0
30/11:30am 11.7 6.3 2.5 53 4.0 NNE 20 30 11 16 1015.1 1015.1 0.0
30/11:00am 11.1 5.7 2.5 55 3.7 NE 20 24 11 13 1015.3 1015.3 0.0
30/10:30am 9.9 5.5 2.6 60 3.1 NNE 15 20 8 11 1015.8 1015.8 0.0
30/10:00am 8.3 1.6 1.7 63 2.7 NNE 26 33 14 18 1016.0 1016.0 0.0
30/09:30am 8.1 1.4 1.5 63 2.7 NNE 26 35 14 19 1016.1 1016.1 0.0
30/09:00am 8.1 3.2 2.1 66 2.5 N 17 20 9 11 1016.0 1016.0 0.0
30/08:30am 7.0 1.7 2.1 71 2.0 NNE 19 24 10 13 1015.5 1015.5 0.0
30/08:00am 6.0 0.7 1.8 74 1.7 NNE 19 22 10 12 1016.1 1016.1 0.0
30/07:30am 5.8 0.9 2.1 77 1.5 NNE 17 22 9 12 1016.4 1016.4 0.0
30/07:00am 5.8 1.9 1.3 73 1.8 N 11 15 6 8 1016.4 1016.4 0.0
30/06:30am 4.9 1.4 1.3 77 1.4 NNE 9 17 5 9 1016.4 1016.4 0.0
30/06:00am 4.9 1.5 1.9 81 1.2 N 9 15 5 8 1016.4 1016.4 0.0
30/05:30am 5.0 1.2 2.0 81 1.2 NE 11 15 6 8 1016.5 1016.5 0.0
30/05:00am 5.4 0.2 2.2 80 1.3 NNW 19 24 10 13 1016.1 1016.1 0.0
30/04:30am 5.3 1.2 2.3 81 1.2 NNW 13 19 7 10 1014.9 1014.9 0.0
30/04:00am 4.5 0.4 2.3 86 0.9 NNE 13 19 7 10 1015.4 1015.4 0.0
30/03:30am 4.2 -0.7 1.9 85 0.9 NNE 17 22 9 12 1016.6 1016.6 0.0
30/03:00am 2.9 -2.2 0.8 86 0.8 N 17 19 9 10 1017.6 1017.6 0.0
30/02:30am 3.4 -1.2 1.3 86 0.8 N 15 22 8 12 1017.5 1017.5 0.0
30/02:00am 3.1 -0.4 1.0 86 0.8 NNE 9 11 5 6 1017.2 1017.2 0.0
30/01:30am 2.7 -0.5 0.6 86 0.8 N 7 9 4 5 1017.6 1017.6 0.0
30/01:00am 3.1 -0.1 1.0 86 0.8 N 7 11 4 6 1018.2 1018.2 0.0
30/12:30am 3.4 0.3 1.3 86 0.8 ENE 7 9 4 5 1018.2 1018.2 0.0
30/12:00am 3.2 -0.3 1.4 88 0.7 NE 9 9 5 5 1018.0 1018.0 0.0
 
Date/Time
CST
Temp
°C
App
Temp
°C
Dew
Point
°C
Rel
Hum
%
Delta-T
°C
Wind Press
QNH
hPa
Press
MSL
hPa
Rain since
9am
mm
Dir  Spd
km/h
Gust
km/h
Spd
kts
Gust
kts
29/11:30pm 3.4 -0.1 1.1 85 0.9 NNE 9 11 5 6 1018.3 1018.3 0.0

Other formats

Comma delimited format used in spreadsheet applications
http://www.bom.gov.au/fwo/IDS60801/IDS60801.95818.axf

JavaScript Object Notation format (JSON) in row-major order
http://www.bom.gov.au/fwo/IDS60801/IDS60801.95818.json

Data quality

Most of these data are generated automatically and are frequently updated. Quality checks on data are not normally performed. It is possible for incorrect values to appear. Refer to information at About Latest Weather Observations and please check the disclaimer before using these data.